sensor_id;sensor_type;location;lat;lon;timestamp;temperature;humidity
20833;DHT22;56075;51.264;7.150;2023-05-09T00:00:29;15.50;99.90
20833;DHT22;56075;51.264;7.150;2023-05-09T00:03:01;15.40;99.90
20833;DHT22;56075;51.264;7.150;2023-05-09T00:05:32;16.40;99.90
20833;DHT22;56075;51.264;7.150;2023-05-09T00:08:03;15.30;99.90
20833;DHT22;56075;51.264;7.150;2023-05-09T00:10:35;15.50;99.90
20833;DHT22;56075;51.264;7.150;2023-05-09T00:13:06;15.50;99.90
20833;DHT22;56075;51.264;7.150;2023-05-09T00:15:37;15.30;99.90
20833;DHT22;56075;51.264;7.150;2023-05-09T00:18:09;15.30;99.90
20833;DHT22;56075;51.264;7.150;2023-05-09T00:20:41;15.40;99.90
20833;DHT22;56075;51.264;7.150;2023-05-09T00:23:12;15.50;99.90
20833;DHT22;56075;51.264;7.150;2023-05-09T00:25:43;15.40;99.90
20833;DHT22;56075;51.264;7.150;2023-05-09T00:28:14;15.40;99.90
20833;DHT22;56075;51.264;7.150;2023-05-09T00:30:45;15.40;99.90
20833;DHT22;56075;51.264;7.150;2023-05-09T00:33:17;15.40;99.90
20833;DHT22;56075;51.264;7.150;2023-05-09T00:35:49;16.40;99.90
20833;DHT22;56075;51.264;7.150;2023-05-09T00:38:22;16.00;99.90
20833;DHT22;56075;51.264;7.150;2023-05-09T00:40:53;15.50;99.90
20833;DHT22;56075;51.264;7.150;2023-05-09T00:43:25;16.40;99.90
20833;DHT22;56075;51.264;7.150;2023-05-09T00:45:56;15.30;99.90
20833;DHT22;56075;51.264;7.150;2023-05-09T00:48:27;15.60;99.90
20833;DHT22;56075;51.264;7.150;2023-05-09T00:50:59;15.30;99.90
20833;DHT22;56075;51.264;7.150;2023-05-09T00:53:30;16.30;99.90
20833;DHT22;56075;51.264;7.150;2023-05-09T00:56:01;16.00;99.90
20833;DHT22;56075;51.264;7.150;2023-05-09T00:58:33;15.10;99.90
20833;DHT22;56075;51.264;7.150;2023-05-09T01:01:05;15.20;99.90
20833;DHT22;56075;51.264;7.150;2023-05-09T01:03:38;15.30;99.90
20833;DHT22;56075;51.264;7.150;2023-05-09T01:12:05;15.10;99.90
20833;DHT22;56075;51.264;7.150;2023-05-09T01:17:57;15.00;99.90
20833;DHT22;56075;51.264;7.150;2023-05-09T01:20:34;15.10;99.90
20833;DHT22;56075;51.264;7.150;2023-05-09T01:31:40;15.10;99.90
20833;DHT22;56075;51.264;7.150;2023-05-09T01:34:14;15.60;99.90
20833;DHT22;56075;51.264;7.150;2023-05-09T01:36:48;15.00;99.90
20833;DHT22;56075;51.264;7.150;2023-05-09T01:39:21;14.70;99.90
20833;DHT22;56075;51.264;7.150;2023-05-09T01:41:55;15.20;99.90
20833;DHT22;56075;51.264;7.150;2023-05-09T01:44:33;16.60;99.90
20833;DHT22;56075;51.264;7.150;2023-05-09T01:47:06;15.10;99.90
20833;DHT22;56075;51.264;7.150;2023-05-09T01:49:40;15.70;99.90
20833;DHT22;56075;51.264;7.150;2023-05-09T01:52:15;15.00;99.90
20833;DHT22;56075;51.264;7.150;2023-05-09T01:54:49;15.10;99.90
20833;DHT22;56075;51.264;7.150;2023-05-09T01:57:21;15.00;99.90
20833;DHT22;56075;51.264;7.150;2023-05-09T01:59:53;15.30;99.90
20833;DHT22;56075;51.264;7.150;2023-05-09T02:02:26;15.00;99.90
20833;DHT22;56075;51.264;7.150;2023-05-09T02:04:59;15.50;99.90
20833;DHT22;56075;51.264;7.150;2023-05-09T02:07:31;15.10;99.90
20833;DHT22;56075;51.264;7.150;2023-05-09T02:10:04;15.50;99.90
20833;DHT22;56075;51.264;7.150;2023-05-09T02:12:37;15.10;99.90
20833;DHT22;56075;51.264;7.150;2023-05-09T02:15:08;14.90;99.90
20833;DHT22;56075;51.264;7.150;2023-05-09T02:17:44;15.00;99.90
20833;DHT22;56075;51.264;7.150;2023-05-09T02:20:16;15.90;99.90
20833;DHT22;56075;51.264;7.150;2023-05-09T02:22:48;14.90;99.90
20833;DHT22;56075;51.264;7.150;2023-05-09T02:25:19;14.70;99.90
20833;DHT22;56075;51.264;7.150;2023-05-09T02:27:51;15.80;99.90
20833;DHT22;56075;51.264;7.150;2023-05-09T02:30:24;15.10;99.90
20833;DHT22;56075;51.264;7.150;2023-05-09T02:33:00;14.80;99.90
20833;DHT22;56075;51.264;7.150;2023-05-09T02:35:32;15.00;99.90
20833;DHT22;56075;51.264;7.150;2023-05-09T02:38:04;15.40;99.90
20833;DHT22;56075;51.264;7.150;2023-05-09T02:40:36;15.80;99.90
20833;DHT22;56075;51.264;7.150;2023-05-09T02:43:07;15.00;99.90
20833;DHT22;56075;51.264;7.150;2023-05-09T02:45:38;15.10;99.90
20833;DHT22;56075;51.264;7.150;2023-05-09T02:48:10;15.30;99.90
20833;DHT22;56075;51.264;7.150;2023-05-09T02:50:41;15.30;99.90
20833;DHT22;56075;51.264;7.150;2023-05-09T02:53:13;15.30;99.90
20833;DHT22;56075;51.264;7.150;2023-05-09T02:55:46;16.10;99.90
20833;DHT22;56075;51.264;7.150;2023-05-09T02:58:17;15.30;99.90
20833;DHT22;56075;51.264;7.150;2023-05-09T03:00:49;16.00;99.90
20833;DHT22;56075;51.264;7.150;2023-05-09T03:03:20;15.80;99.90
20833;DHT22;56075;51.264;7.150;2023-05-09T03:05:53;15.40;99.90
20833;DHT22;56075;51.264;7.150;2023-05-09T03:08:24;15.80;99.90
20833;DHT22;56075;51.264;7.150;2023-05-09T03:10:55;15.40;99.90
20833;DHT22;56075;51.264;7.150;2023-05-09T03:13:28;15.40;99.90
20833;DHT22;56075;51.264;7.150;2023-05-09T03:16:00;16.20;99.90
20833;DHT22;56075;51.264;7.150;2023-05-09T03:18:31;15.40;99.90
20833;DHT22;56075;51.264;7.150;2023-05-09T03:21:03;16.30;99.90
20833;DHT22;56075;51.264;7.150;2023-05-09T03:23:35;15.30;99.90
20833;DHT22;56075;51.264;7.150;2023-05-09T03:26:07;15.20;99.90
20833;DHT22;56075;51.264;7.150;2023-05-09T03:28:38;15.40;99.90
20833;DHT22;56075;51.264;7.150;2023-05-09T03:31:10;15.30;99.90
20833;DHT22;56075;51.264;7.150;2023-05-09T03:33:41;15.30;99.90
20833;DHT22;56075;51.264;7.150;2023-05-09T03:36:13;15.50;99.90
20833;DHT22;56075;51.264;7.150;2023-05-09T03:38:47;15.50;99.90
20833;DHT22;56075;51.264;7.150;2023-05-09T03:41:19;15.60;99.90
20833;DHT22;56075;51.264;7.150;2023-05-09T03:43:52;16.10;99.90
20833;DHT22;56075;51.264;7.150;2023-05-09T03:46:23;16.10;99.90
20833;DHT22;56075;51.264;7.150;2023-05-09T03:48:54;15.40;99.90
20833;DHT22;56075;51.264;7.150;2023-05-09T03:51:26;15.60;99.90
20833;DHT22;56075;51.264;7.150;2023-05-09T03:53:58;16.40;99.90
20833;DHT22;56075;51.264;7.150;2023-05-09T03:56:30;16.10;99.90
20833;DHT22;56075;51.264;7.150;2023-05-09T03:59:01;16.80;99.90
20833;DHT22;56075;51.264;7.150;2023-05-09T04:01:33;15.60;99.90
20833;DHT22;56075;51.264;7.150;2023-05-09T04:04:06;15.90;99.90
20833;DHT22;56075;51.264;7.150;2023-05-09T04:06:39;15.50;99.90
20833;DHT22;56075;51.264;7.150;2023-05-09T04:09:13;16.40;99.90
20833;DHT22;56075;51.264;7.150;2023-05-09T04:11:46;16.40;99.90
20833;DHT22;56075;51.264;7.150;2023-05-09T04:14:19;16.20;99.90
20833;DHT22;56075;51.264;7.150;2023-05-09T04:16:50;15.60;99.90
20833;DHT22;56075;51.264;7.150;2023-05-09T04:19:21;15.50;99.90
20833;DHT22;56075;51.264;7.150;2023-05-09T04:21:53;16.80;99.90
20833;DHT22;56075;51.264;7.150;2023-05-09T04:24:24;15.40;99.90
20833;DHT22;56075;51.264;7.150;2023-05-09T04:26:56;15.50;99.90
20833;DHT22;56075;51.264;7.150;2023-05-09T04:29:30;16.10;99.90
20833;DHT22;56075;51.264;7.150;2023-05-09T04:32:02;16.80;99.90
20833;DHT22;56075;51.264;7.150;2023-05-09T04:34:34;15.40;99.90
20833;DHT22;56075;51.264;7.150;2023-05-09T04:37:12;17.10;99.90
20833;DHT22;56075;51.264;7.150;2023-05-09T04:39:43;15.60;99.90
20833;DHT22;56075;51.264;7.150;2023-05-09T04:42:22;15.80;99.90
20833;DHT22;56075;51.264;7.150;2023-05-09T04:44:53;15.60;99.90
20833;DHT22;56075;51.264;7.150;2023-05-09T04:47:26;15.60;99.90
20833;DHT22;56075;51.264;7.150;2023-05-09T04:49:57;15.90;99.90
20833;DHT22;56075;51.264;7.150;2023-05-09T04:52:28;15.60;99.90
20833;DHT22;56075;51.264;7.150;2023-05-09T04:54:59;15.70;99.90
20833;DHT22;56075;51.264;7.150;2023-05-09T04:57:36;15.70;99.90
20833;DHT22;56075;51.264;7.150;2023-05-09T05:00:09;15.90;99.90
20833;DHT22;56075;51.264;7.150;2023-05-09T05:02:42;15.80;99.90
20833;DHT22;56075;51.264;7.150;2023-05-09T05:05:13;16.80;99.90
20833;DHT22;56075;51.264;7.150;2023-05-09T05:07:47;16.90;99.90
20833;DHT22;56075;51.264;7.150;2023-05-09T05:10:23;15.90;99.90
20833;DHT22;56075;51.264;7.150;2023-05-09T05:13:01;15.70;99.90
20833;DHT22;56075;51.264;7.150;2023-05-09T05:15:32;15.90;99.90
20833;DHT22;56075;51.264;7.150;2023-05-09T05:18:03;16.30;99.90
20833;DHT22;56075;51.264;7.150;2023-05-09T05:20:41;15.60;99.90
20833;DHT22;56075;51.264;7.150;2023-05-09T05:23:12;15.70;99.90
20833;DHT22;56075;51.264;7.150;2023-05-09T05:25:44;15.90;99.90
20833;DHT22;56075;51.264;7.150;2023-05-09T05:28:16;15.60;99.90
20833;DHT22;56075;51.264;7.150;2023-05-09T05:30:47;15.80;99.90
20833;DHT22;56075;51.264;7.150;2023-05-09T05:33:18;16.00;99.90
20833;DHT22;56075;51.264;7.150;2023-05-09T05:35:50;16.40;99.90
20833;DHT22;56075;51.264;7.150;2023-05-09T05:38:21;16.10;99.90
20833;DHT22;56075;51.264;7.150;2023-05-09T05:40:56;16.10;99.90
20833;DHT22;56075;51.264;7.150;2023-05-09T05:43:29;16.30;99.90
20833;DHT22;56075;51.264;7.150;2023-05-09T05:46:00;16.70;99.90
20833;DHT22;56075;51.264;7.150;2023-05-09T05:48:33;16.30;99.90
20833;DHT22;56075;51.264;7.150;2023-05-09T05:51:05;16.30;99.90
20833;DHT22;56075;51.264;7.150;2023-05-09T05:53:37;16.30;99.90
20833;DHT22;56075;51.264;7.150;2023-05-09T05:56:08;16.30;99.90
20833;DHT22;56075;51.264;7.150;2023-05-09T05:58:40;16.40;99.90
20833;DHT22;56075;51.264;7.150;2023-05-09T06:01:11;17.20;99.90
20833;DHT22;56075;51.264;7.150;2023-05-09T06:03:44;16.60;99.90
20833;DHT22;56075;51.264;7.150;2023-05-09T06:06:15;16.50;99.90
20833;DHT22;56075;51.264;7.150;2023-05-09T06:08:47;16.60;99.90
20833;DHT22;56075;51.264;7.150;2023-05-09T06:11:20;16.70;99.90
20833;DHT22;56075;51.264;7.150;2023-05-09T06:13:51;17.20;99.90
20833;DHT22;56075;51.264;7.150;2023-05-09T06:16:22;16.60;99.90
20833;DHT22;56075;51.264;7.150;2023-05-09T06:18:54;17.30;99.90
20833;DHT22;56075;51.264;7.150;2023-05-09T06:21:25;17.20;99.90
20833;DHT22;56075;51.264;7.150;2023-05-09T06:23:56;17.00;99.90
20833;DHT22;56075;51.264;7.150;2023-05-09T06:26:28;17.00;99.90
20833;DHT22;56075;51.264;7.150;2023-05-09T06:28:59;18.30;99.90
20833;DHT22;56075;51.264;7.150;2023-05-09T06:31:31;17.30;99.90
20833;DHT22;56075;51.264;7.150;2023-05-09T06:34:06;17.30;99.90
20833;DHT22;56075;51.264;7.150;2023-05-09T06:36:37;17.30;99.90
20833;DHT22;56075;51.264;7.150;2023-05-09T06:39:08;18.20;99.90
20833;DHT22;56075;51.264;7.150;2023-05-09T06:41:39;17.20;99.90
20833;DHT22;56075;51.264;7.150;2023-05-09T06:44:10;17.80;99.90
20833;DHT22;56075;51.264;7.150;2023-05-09T06:46:41;17.90;99.90
20833;DHT22;56075;51.264;7.150;2023-05-09T06:49:12;17.50;99.90
20833;DHT22;56075;51.264;7.150;2023-05-09T06:51:44;17.60;99.90
20833;DHT22;56075;51.264;7.150;2023-05-09T06:54:15;17.30;99.90
20833;DHT22;56075;51.264;7.150;2023-05-09T06:56:47;17.40;99.90
20833;DHT22;56075;51.264;7.150;2023-05-09T06:59:18;17.40;99.90
20833;DHT22;56075;51.264;7.150;2023-05-09T07:01:49;17.70;99.90
20833;DHT22;56075;51.264;7.150;2023-05-09T07:04:20;17.70;99.90
20833;DHT22;56075;51.264;7.150;2023-05-09T07:06:51;18.10;99.90
20833;DHT22;56075;51.264;7.150;2023-05-09T07:09:22;17.70;99.90
20833;DHT22;56075;51.264;7.150;2023-05-09T07:11:58;17.80;99.90
20833;DHT22;56075;51.264;7.150;2023-05-09T07:14:30;17.80;99.90
20833;DHT22;56075;51.264;7.150;2023-05-09T07:17:01;18.10;99.90
20833;DHT22;56075;51.264;7.150;2023-05-09T07:19:32;18.10;99.90
20833;DHT22;56075;51.264;7.150;2023-05-09T07:22:03;18.00;99.90
20833;DHT22;56075;51.264;7.150;2023-05-09T07:24:35;18.20;99.90
20833;DHT22;56075;51.264;7.150;2023-05-09T07:27:06;18.00;99.90
20833;DHT22;56075;51.264;7.150;2023-05-09T07:29:37;18.30;99.90
20833;DHT22;56075;51.264;7.150;2023-05-09T07:32:09;18.10;99.90
20833;DHT22;56075;51.264;7.150;2023-05-09T07:34:40;18.30;99.90
20833;DHT22;56075;51.264;7.150;2023-05-09T07:37:12;19.00;99.90
20833;DHT22;56075;51.264;7.150;2023-05-09T07:39:43;18.50;99.90
20833;DHT22;56075;51.264;7.150;2023-05-09T07:42:14;19.50;99.90
20833;DHT22;56075;51.264;7.150;2023-05-09T07:44:46;18.60;99.90
20833;DHT22;56075;51.264;7.150;2023-05-09T07:47:17;18.60;99.90
20833;DHT22;56075;51.264;7.150;2023-05-09T07:49:49;18.70;99.90
20833;DHT22;56075;51.264;7.150;2023-05-09T07:52:20;18.70;99.90
20833;DHT22;56075;51.264;7.150;2023-05-09T07:54:51;18.70;99.90
20833;DHT22;56075;51.264;7.150;2023-05-09T07:57:24;18.60;99.90
20833;DHT22;56075;51.264;7.150;2023-05-09T07:59:55;18.80;99.90
20833;DHT22;56075;51.264;7.150;2023-05-09T08:02:26;18.70;99.90
20833;DHT22;56075;51.264;7.150;2023-05-09T08:04:57;18.70;99.90
20833;DHT22;56075;51.264;7.150;2023-05-09T08:07:29;18.80;99.90
20833;DHT22;56075;51.264;7.150;2023-05-09T08:10:00;19.10;99.90
20833;DHT22;56075;51.264;7.150;2023-05-09T08:12:31;19.40;99.90
20833;DHT22;56075;51.264;7.150;2023-05-09T08:15:02;20.10;99.90
20833;DHT22;56075;51.264;7.150;2023-05-09T08:17:34;19.10;99.90
20833;DHT22;56075;51.264;7.150;2023-05-09T08:20:05;19.40;99.90
20833;DHT22;56075;51.264;7.150;2023-05-09T08:22:39;19.10;99.90
20833;DHT22;56075;51.264;7.150;2023-05-09T08:25:10;19.00;99.90
20833;DHT22;56075;51.264;7.150;2023-05-09T08:27:43;19.00;99.90
20833;DHT22;56075;51.264;7.150;2023-05-09T08:30:14;19.00;99.90
20833;DHT22;56075;51.264;7.150;2023-05-09T08:32:45;17.80;99.90
20833;DHT22;56075;51.264;7.150;2023-05-09T08:35:16;19.30;99.90
20833;DHT22;56075;51.264;7.150;2023-05-09T08:37:48;19.00;99.90
20833;DHT22;56075;51.264;7.150;2023-05-09T08:40:19;19.20;99.90
20833;DHT22;56075;51.264;7.150;2023-05-09T08:42:50;19.10;99.90
20833;DHT22;56075;51.264;7.150;2023-05-09T08:45:28;19.10;99.90
20833;DHT22;56075;51.264;7.150;2023-05-09T08:48:02;18.90;99.90
20833;DHT22;56075;51.264;7.150;2023-05-09T08:50:33;19.40;99.90
20833;DHT22;56075;51.264;7.150;2023-05-09T08:53:05;18.90;99.90
20833;DHT22;56075;51.264;7.150;2023-05-09T08:55:37;18.90;99.90
20833;DHT22;56075;51.264;7.150;2023-05-09T08:58:08;19.20;99.90
20833;DHT22;56075;51.264;7.150;2023-05-09T09:00:40;19.60;99.90
20833;DHT22;56075;51.264;7.150;2023-05-09T09:03:11;19.10;99.90
20833;DHT22;56075;51.264;7.150;2023-05-09T09:05:43;19.20;99.90
20833;DHT22;56075;51.264;7.150;2023-05-09T09:08:17;19.40;99.90
20833;DHT22;56075;51.264;7.150;2023-05-09T09:10:48;19.50;99.90
20833;DHT22;56075;51.264;7.150;2023-05-09T09:13:20;19.60;99.90
20833;DHT22;56075;51.264;7.150;2023-05-09T09:15:53;19.80;99.90
20833;DHT22;56075;51.264;7.150;2023-05-09T09:18:28;19.70;99.90
20833;DHT22;56075;51.264;7.150;2023-05-09T09:21:05;20.20;99.90
20833;DHT22;56075;51.264;7.150;2023-05-09T09:23:38;19.70;99.90
20833;DHT22;56075;51.264;7.150;2023-05-09T09:26:11;19.80;99.90
20833;DHT22;56075;51.264;7.150;2023-05-09T09:28:42;20.90;99.90
20833;DHT22;56075;51.264;7.150;2023-05-09T09:31:26;20.50;99.90
20833;DHT22;56075;51.264;7.150;2023-05-09T09:34:01;20.20;99.90
20833;DHT22;56075;51.264;7.150;2023-05-09T09:36:33;20.60;99.90
20833;DHT22;56075;51.264;7.150;2023-05-09T09:39:04;21.00;99.90
20833;DHT22;56075;51.264;7.150;2023-05-09T09:41:37;21.20;99.90
20833;DHT22;56075;51.264;7.150;2023-05-09T09:44:10;22.70;99.90
20833;DHT22;56075;51.264;7.150;2023-05-09T09:46:52;20.90;99.90
20833;DHT22;56075;51.264;7.150;2023-05-09T09:49:25;21.00;99.90
20833;DHT22;56075;51.264;7.150;2023-05-09T09:51:57;21.10;99.90
20833;DHT22;56075;51.264;7.150;2023-05-09T09:54:28;21.10;99.90
20833;DHT22;56075;51.264;7.150;2023-05-09T09:57:01;21.00;99.90
20833;DHT22;56075;51.264;7.150;2023-05-09T09:59:32;21.20;99.90
20833;DHT22;56075;51.264;7.150;2023-05-09T10:02:05;21.30;99.90
20833;DHT22;56075;51.264;7.150;2023-05-09T10:04:42;21.40;99.90
20833;DHT22;56075;51.264;7.150;2023-05-09T10:07:14;21.80;99.90
20833;DHT22;56075;51.264;7.150;2023-05-09T10:09:45;22.30;99.90
20833;DHT22;56075;51.264;7.150;2023-05-09T10:12:19;21.70;99.90
20833;DHT22;56075;51.264;7.150;2023-05-09T10:14:53;22.50;99.90
20833;DHT22;56075;51.264;7.150;2023-05-09T10:17:24;21.80;99.90
20833;DHT22;56075;51.264;7.150;2023-05-09T10:20:03;21.70;99.90
20833;DHT22;56075;51.264;7.150;2023-05-09T10:22:35;21.80;99.90
20833;DHT22;56075;51.264;7.150;2023-05-09T10:25:13;21.70;99.90
20833;DHT22;56075;51.264;7.150;2023-05-09T10:27:48;21.90;99.90
20833;DHT22;56075;51.264;7.150;2023-05-09T10:30:25;21.90;99.90
20833;DHT22;56075;51.264;7.150;2023-05-09T10:33:01;21.80;99.90
20833;DHT22;56075;51.264;7.150;2023-05-09T10:35:43;22.20;99.90
20833;DHT22;56075;51.264;7.150;2023-05-09T10:38:16;23.10;99.90
20833;DHT22;56075;51.264;7.150;2023-05-09T10:40:48;22.40;99.90
20833;DHT22;56075;51.264;7.150;2023-05-09T10:43:19;22.50;99.90
20833;DHT22;56075;51.264;7.150;2023-05-09T10:45:54;22.80;99.90
20833;DHT22;56075;51.264;7.150;2023-05-09T10:48:25;22.60;99.90
20833;DHT22;56075;51.264;7.150;2023-05-09T10:50:57;22.60;99.90
20833;DHT22;56075;51.264;7.150;2023-05-09T10:53:43;22.60;99.90
20833;DHT22;56075;51.264;7.150;2023-05-09T10:56:25;22.70;99.90
20833;DHT22;56075;51.264;7.150;2023-05-09T10:58:58;23.60;99.90
20833;DHT22;56075;51.264;7.150;2023-05-09T11:01:36;22.70;99.70
20833;DHT22;56075;51.264;7.150;2023-05-09T11:04:11;22.90;99.50
20833;DHT22;56075;51.264;7.150;2023-05-09T11:06:50;23.00;99.30
20833;DHT22;56075;51.264;7.150;2023-05-09T11:14:47;23.00;98.40
20833;DHT22;56075;51.264;7.150;2023-05-09T11:19:59;22.90;98.80
20833;DHT22;56075;51.264;7.150;2023-05-09T11:22:38;22.90;98.80
20833;DHT22;56075;51.264;7.150;2023-05-09T11:25:11;22.60;98.70
20833;DHT22;56075;51.264;7.150;2023-05-09T11:27:47;22.60;99.10
20833;DHT22;56075;51.264;7.150;2023-05-09T11:30:19;22.50;98.80
20833;DHT22;56075;51.264;7.150;2023-05-09T11:32:52;22.60;99.00
20833;DHT22;56075;51.264;7.150;2023-05-09T11:35:25;22.50;98.90
20833;DHT22;56075;51.264;7.150;2023-05-09T11:40:32;22.40;99.00
20833;DHT22;56075;51.264;7.150;2023-05-09T11:43:06;22.60;99.00
20833;DHT22;56075;51.264;7.150;2023-05-09T11:45:38;22.50;98.80
20833;DHT22;56075;51.264;7.150;2023-05-09T11:48:10;22.70;98.80
20833;DHT22;56075;51.264;7.150;2023-05-09T11:50:41;22.90;98.50
20833;DHT22;56075;51.264;7.150;2023-05-09T11:53:12;22.70;98.60
20833;DHT22;56075;51.264;7.150;2023-05-09T11:55:44;22.70;98.30
20833;DHT22;56075;51.264;7.150;2023-05-09T11:58:16;22.80;98.30
20833;DHT22;56075;51.264;7.150;2023-05-09T12:00:47;22.70;98.20
20833;DHT22;56075;51.264;7.150;2023-05-09T12:03:19;22.70;98.00
20833;DHT22;56075;51.264;7.150;2023-05-09T12:05:50;22.60;97.80
20833;DHT22;56075;51.264;7.150;2023-05-09T12:08:23;22.60;97.70
20833;DHT22;56075;51.264;7.150;2023-05-09T12:10:55;22.60;97.50
20833;DHT22;56075;51.264;7.150;2023-05-09T12:13:48;22.70;97.30
20833;DHT22;56075;51.264;7.150;2023-05-09T12:16:20;22.90;96.80
20833;DHT22;56075;51.264;7.150;2023-05-09T12:18:52;23.10;96.60
20833;DHT22;56075;51.264;7.150;2023-05-09T12:21:23;23.10;96.20
20833;DHT22;56075;51.264;7.150;2023-05-09T12:23:55;23.10;96.00
20833;DHT22;56075;51.264;7.150;2023-05-09T12:26:27;23.10;95.90
20833;DHT22;56075;51.264;7.150;2023-05-09T12:28:58;23.40;95.70
20833;DHT22;56075;51.264;7.150;2023-05-09T12:31:30;23.50;95.40
20833;DHT22;56075;51.264;7.150;2023-05-09T12:34:01;23.50;95.50
20833;DHT22;56075;51.264;7.150;2023-05-09T12:36:36;23.50;95.20
20833;DHT22;56075;51.264;7.150;2023-05-09T12:39:10;23.40;95.20
20833;DHT22;56075;51.264;7.150;2023-05-09T12:41:43;23.50;95.10
20833;DHT22;56075;51.264;7.150;2023-05-09T12:44:23;23.50;95.10
20833;DHT22;56075;51.264;7.150;2023-05-09T12:46:57;23.40;94.80
20833;DHT22;56075;51.264;7.150;2023-05-09T12:49:30;23.60;95.20
20833;DHT22;56075;51.264;7.150;2023-05-09T12:52:01;23.60;95.00
20833;DHT22;56075;51.264;7.150;2023-05-09T12:54:32;23.80;94.80
20833;DHT22;56075;51.264;7.150;2023-05-09T12:57:03;23.70;94.60
20833;DHT22;56075;51.264;7.150;2023-05-09T12:59:35;23.60;94.50
20833;DHT22;56075;51.264;7.150;2023-05-09T13:02:06;23.70;94.40
20833;DHT22;56075;51.264;7.150;2023-05-09T13:04:38;23.80;94.30
20833;DHT22;56075;51.264;7.150;2023-05-09T13:07:09;23.70;94.30
20833;DHT22;56075;51.264;7.150;2023-05-09T13:09:53;23.90;94.10
20833;DHT22;56075;51.264;7.150;2023-05-09T13:12:26;23.80;93.90
20833;DHT22;56075;51.264;7.150;2023-05-09T13:14:57;23.80;94.00
20833;DHT22;56075;51.264;7.150;2023-05-09T13:17:28;23.80;93.90
20833;DHT22;56075;51.264;7.150;2023-05-09T13:20:00;23.90;93.90
20833;DHT22;56075;51.264;7.150;2023-05-09T13:22:32;23.70;93.50
20833;DHT22;56075;51.264;7.150;2023-05-09T13:25:04;23.70;93.70
20833;DHT22;56075;51.264;7.150;2023-05-09T13:27:35;23.70;94.00
20833;DHT22;56075;51.264;7.150;2023-05-09T13:30:07;23.70;94.10
20833;DHT22;56075;51.264;7.150;2023-05-09T13:32:38;23.60;93.90
20833;DHT22;56075;51.264;7.150;2023-05-09T13:35:10;23.60;93.90
20833;DHT22;56075;51.264;7.150;2023-05-09T13:37:41;23.60;93.80
20833;DHT22;56075;51.264;7.150;2023-05-09T13:40:13;23.40;93.90
20833;DHT22;56075;51.264;7.150;2023-05-09T13:42:44;23.40;94.00
20833;DHT22;56075;51.264;7.150;2023-05-09T13:45:16;23.20;94.10
20833;DHT22;56075;51.264;7.150;2023-05-09T13:47:47;23.20;93.90
20833;DHT22;56075;51.264;7.150;2023-05-09T13:50:18;23.00;94.00
20833;DHT22;56075;51.264;7.150;2023-05-09T13:52:49;22.80;94.10
20833;DHT22;56075;51.264;7.150;2023-05-09T13:55:20;22.50;94.60
20833;DHT22;56075;51.264;7.150;2023-05-09T13:57:51;22.40;94.40
20833;DHT22;56075;51.264;7.150;2023-05-09T14:00:22;22.30;94.40
20833;DHT22;56075;51.264;7.150;2023-05-09T14:02:56;22.30;94.40
20833;DHT22;56075;51.264;7.150;2023-05-09T14:05:30;22.20;94.60
20833;DHT22;56075;51.264;7.150;2023-05-09T14:08:01;22.10;94.60
20833;DHT22;56075;51.264;7.150;2023-05-09T14:10:33;22.10;94.70
20833;DHT22;56075;51.264;7.150;2023-05-09T14:13:04;21.90;94.70
20833;DHT22;56075;51.264;7.150;2023-05-09T14:15:38;21.70;95.00
20833;DHT22;56075;51.264;7.150;2023-05-09T14:18:10;21.70;95.30
20833;DHT22;56075;51.264;7.150;2023-05-09T14:20:42;21.80;95.50
20833;DHT22;56075;51.264;7.150;2023-05-09T14:23:13;21.80;95.30
20833;DHT22;56075;51.264;7.150;2023-05-09T14:25:44;21.90;95.30
20833;DHT22;56075;51.264;7.150;2023-05-09T14:28:15;21.90;95.30
20833;DHT22;56075;51.264;7.150;2023-05-09T14:30:46;21.80;95.40
20833;DHT22;56075;51.264;7.150;2023-05-09T14:33:17;21.70;95.50
20833;DHT22;56075;51.264;7.150;2023-05-09T14:35:49;21.50;95.70
20833;DHT22;56075;51.264;7.150;2023-05-09T14:38:20;21.60;95.90
20833;DHT22;56075;51.264;7.150;2023-05-09T14:40:51;21.50;96.60
20833;DHT22;56075;51.264;7.150;2023-05-09T14:43:22;21.40;97.40
20833;DHT22;56075;51.264;7.150;2023-05-09T14:45:54;21.20;98.20
20833;DHT22;56075;51.264;7.150;2023-05-09T14:48:25;21.10;98.80
20833;DHT22;56075;51.264;7.150;2023-05-09T14:50:56;20.90;99.30
20833;DHT22;56075;51.264;7.150;2023-05-09T14:53:28;20.60;99.80
20833;DHT22;56075;51.264;7.150;2023-05-09T14:55:59;20.50;99.90
20833;DHT22;56075;51.264;7.150;2023-05-09T14:58:36;20.20;99.90
20833;DHT22;56075;51.264;7.150;2023-05-09T15:01:07;19.90;99.90
20833;DHT22;56075;51.264;7.150;2023-05-09T15:03:38;19.80;99.90
20833;DHT22;56075;51.264;7.150;2023-05-09T15:06:09;19.60;99.90
20833;DHT22;56075;51.264;7.150;2023-05-09T15:08:40;19.60;99.90
20833;DHT22;56075;51.264;7.150;2023-05-09T15:11:12;19.30;99.90
20833;DHT22;56075;51.264;7.150;2023-05-09T15:13:43;19.30;99.90
20833;DHT22;56075;51.264;7.150;2023-05-09T15:16:14;18.80;99.90
20833;DHT22;56075;51.264;7.150;2023-05-09T15:18:45;19.80;99.90
20833;DHT22;56075;51.264;7.150;2023-05-09T15:21:16;19.40;99.90
20833;DHT22;56075;51.264;7.150;2023-05-09T15:23:47;18.30;99.90
20833;DHT22;56075;51.264;7.150;2023-05-09T15:26:18;18.20;99.90
20833;DHT22;56075;51.264;7.150;2023-05-09T15:28:49;17.80;99.90
20833;DHT22;56075;51.264;7.150;2023-05-09T15:31:21;18.00;99.90
20833;DHT22;56075;51.264;7.150;2023-05-09T15:33:53;17.60;99.90
20833;DHT22;56075;51.264;7.150;2023-05-09T15:36:24;16.90;99.90
20833;DHT22;56075;51.264;7.150;2023-05-09T15:38:56;17.20;99.90
20833;DHT22;56075;51.264;7.150;2023-05-09T15:41:27;16.80;99.90
20833;DHT22;56075;51.264;7.150;2023-05-09T15:43:58;16.70;99.90
20833;DHT22;56075;51.264;7.150;2023-05-09T15:46:30;16.50;99.90
20833;DHT22;56075;51.264;7.150;2023-05-09T15:49:01;16.40;99.90
20833;DHT22;56075;51.264;7.150;2023-05-09T15:51:34;16.50;99.90
20833;DHT22;56075;51.264;7.150;2023-05-09T15:54:05;16.30;99.90
20833;DHT22;56075;51.264;7.150;2023-05-09T15:56:36;16.60;99.90
20833;DHT22;56075;51.264;7.150;2023-05-09T15:59:08;16.20;99.90
20833;DHT22;56075;51.264;7.150;2023-05-09T16:01:39;16.40;99.90
20833;DHT22;56075;51.264;7.150;2023-05-09T16:04:11;15.90;99.90
20833;DHT22;56075;51.264;7.150;2023-05-09T16:06:43;17.10;99.90
20833;DHT22;56075;51.264;7.150;2023-05-09T16:09:15;16.00;99.90
20833;DHT22;56075;51.264;7.150;2023-05-09T16:11:46;16.00;99.90
20833;DHT22;56075;51.264;7.150;2023-05-09T16:14:17;16.00;99.90
20833;DHT22;56075;51.264;7.150;2023-05-09T16:16:49;16.10;99.90
20833;DHT22;56075;51.264;7.150;2023-05-09T16:19:21;15.90;99.90
20833;DHT22;56075;51.264;7.150;2023-05-09T16:21:52;15.90;99.90
20833;DHT22;56075;51.264;7.150;2023-05-09T16:24:23;15.70;99.90
20833;DHT22;56075;51.264;7.150;2023-05-09T16:26:54;16.40;99.90
20833;DHT22;56075;51.264;7.150;2023-05-09T16:29:26;16.70;99.90